Current | Forecast
Updated: 4:00 PM JST on March 29, 2017
Observed at Nagasaki Airport, Japan
Temperature 57°F
Humidity 59%
Dew Point 43°F
Wind ESE at 13 mph
Pressure 30.12 in (Steady)
Conditions Mostly Cloudy
Visibility 6.2 miles
UV 2 out of 16
Clouds (FEW) : 2500 ft
Mostly Cloudy (BKN) : 3000 ft
Mostly Cloudy (BKN) : 4000 ft
Yesterday's Maximum 61°F
Yesterday's Minimum 43°F approx.
Yesterday's Heating Degree Days 13 approx.
Sunrise6:13 AM JST
Sunset6:39 PM JST
Moon Rise7:01 AM JST
Moon Set7:56 PM JST
Moon PhaseMoon Phase
New Moon
Raw METARMETAR RJFU 290700Z 12011KT 9999 FEW025 BKN030 BKN040 14/06 Q1020


Monday
. High: 71° F.
Tuesday
. High: 71° F.
Wednesday
. High: 71° F.
Thursday
. High: 71° F.
Friday
. High: 68° F.
Saturday
. High: 75° F.
Sunday
. High: 78° F.
Monday
. High: 78° F.

Units: English | Metric

Find the Weather for any City, State or Zipcode, or Country:

U.S. State List | Severe Weather | Tropical Storms | Ski Conditions
United States | Canada | Central America | South America | Asia | Europe | Australia | Africa | Islands

Weather Underground

© Copyright 2017
The Weather Company, LLC